Details for United Airlines at KORD




Go Back


Latest METAR
Local Time

KORD 221051Z 36010KT 10SM FEW031 BKN040 BKN250 11/07 A3029 RMK AO2 SLP258 T01110067
22/09/2018, 05:54:52

Description
Results
United Airlines Logo
Number of Pilots based at KORD
0 Pilots Based here
Number of United Airlines Flights Departed from KORD
7 Flights Departed
Number of United Airlines Flights Arrived at KORD
8 Flights Arrived
Number of United Airlines Schedules Departing from KORD
623 Schedules
Number of United Airlines Schedules Arriving at KORD
634 Schedules
Number of United Airlines Schedules Departing from KORD availible today
363 Schedules Today
Number of United Airlines Schedules Arriving at KORD availible today
343 Schedules Today
Average Landing Rate at KORD
-237 fpm
United Airlines Average Landing Rate at KORD
-273 fpm
Total Fuel Purchased at KORD by United Airlines
35,193.77 kgs / 77,588.19 lbs

Pilots Based at KORD


Pilot ID
Pilot Name
Pilot Rank
No. of Flights
No. of Flying Hours
There are no pilots assigned to this hub!   Will you be the first?
Content